SBPB/PHB METAR and TAF weather

Enter ICAO airport designator
Station Type Date Time Source
SBPB METAR 2020/04/03 20:45 UTC NOAA

SBPB 032045Z 14002KT 9999 BKN017 BKN100 26/25 Q1009


Station Type Date Time Source
SBPB Decoded METAR 2020/04/03 20:45 UTC NOAA

Parnaiba Aeroporto , Brazil (SBPB) 02-55S 041-45W
Apr 03, 2020 - 04:45 PM EDT / 2020.04.03 2045 UTC
Wind: from the SE (140 degrees) at 2 MPH (2 KT):0
Visibility: greater than 7 mile(s):0
Sky conditions: mostly cloudy
Temperature: 78 F (26 C)
Dew Point: 77 F (25 C)
Relative Humidity: 94%
Pressure (altimeter): 29.80 in. Hg (1009 hPa)
ob: SBPB 032045Z 14002KT 9999 BKN017 BKN100 26/25 Q1009
cycle: 21

Station Type Date Time Source
SBPB TAF 2020/04/04 12:03 UTC NOAA

TAF SBPB 040900Z 0412/0424 06008KT 9999 SCT017 TX32/0418Z TN28/0423Z
BECMG 0413/0415 07010KT VCSH SCT017 FEW027TCU
BECMG 0416/0418 TSRA SCT020 FEW025CB
BECMG 0422/0424 NSW FEW020 FEW025TCU
RMK PEW

Example: see airport list